sensor_id;sensor_type;location;lat;lon;timestamp;P1;durP1;ratioP1;P2;durP2;ratioP2
18280;SDS011;9266;51.132;17.062;2023-05-07T00:01:36;8.70;;;7.43;;
18280;SDS011;9266;51.132;17.062;2023-05-07T00:04:03;8.53;;;7.57;;
18280;SDS011;9266;51.132;17.062;2023-05-07T00:06:31;12.00;;;8.40;;
18280;SDS011;9266;51.132;17.062;2023-05-07T00:08:58;7.70;;;7.00;;
18280;SDS011;9266;51.132;17.062;2023-05-07T00:11:27;8.17;;;7.37;;
18280;SDS011;9266;51.132;17.062;2023-05-07T00:13:54;7.90;;;7.10;;
18280;SDS011;9266;51.132;17.062;2023-05-07T00:16:21;7.60;;;6.97;;
18280;SDS011;9266;51.132;17.062;2023-05-07T00:18:48;8.60;;;7.80;;
18280;SDS011;9266;51.132;17.062;2023-05-07T00:21:15;7.03;;;6.33;;
18280;SDS011;9266;51.132;17.062;2023-05-07T00:23:43;8.10;;;7.30;;
18280;SDS011;9266;51.132;17.062;2023-05-07T00:26:10;9.00;;;6.93;;
18280;SDS011;9266;51.132;17.062;2023-05-07T00:28:38;8.03;;;7.23;;
18280;SDS011;9266;51.132;17.062;2023-05-07T00:31:05;7.50;;;6.83;;
18280;SDS011;9266;51.132;17.062;2023-05-07T00:33:32;7.43;;;6.73;;
18280;SDS011;9266;51.132;17.062;2023-05-07T00:35:59;8.00;;;7.30;;
18280;SDS011;9266;51.132;17.062;2023-05-07T00:38:27;6.93;;;6.33;;
18280;SDS011;9266;51.132;17.062;2023-05-07T00:40:54;7.30;;;6.60;;
18280;SDS011;9266;51.132;17.062;2023-05-07T00:43:21;7.40;;;6.70;;
18280;SDS011;9266;51.132;17.062;2023-05-07T00:45:49;7.27;;;6.57;;
18280;SDS011;9266;51.132;17.062;2023-05-07T00:48:16;7.33;;;6.73;;
18280;SDS011;9266;51.132;17.062;2023-05-07T00:50:44;6.93;;;6.23;;
18280;SDS011;9266;51.132;17.062;2023-05-07T00:53:12;7.50;;;6.80;;
18280;SDS011;9266;51.132;17.062;2023-05-07T00:55:39;7.47;;;6.60;;
18280;SDS011;9266;51.132;17.062;2023-05-07T00:58:06;7.53;;;6.70;;
18280;SDS011;9266;51.132;17.062;2023-05-07T01:00:33;7.57;;;6.80;;
18280;SDS011;9266;51.132;17.062;2023-05-07T01:03:02;7.90;;;7.10;;
18280;SDS011;9266;51.132;17.062;2023-05-07T01:05:29;7.70;;;7.00;;
18280;SDS011;9266;51.132;17.062;2023-05-07T01:07:56;8.53;;;7.40;;
18280;SDS011;9266;51.132;17.062;2023-05-07T01:10:24;8.37;;;7.20;;
18280;SDS011;9266;51.132;17.062;2023-05-07T01:12:51;8.37;;;7.53;;
18280;SDS011;9266;51.132;17.062;2023-05-07T01:15:20;8.60;;;7.70;;
18280;SDS011;9266;51.132;17.062;2023-05-07T01:17:47;8.70;;;7.70;;
18280;SDS011;9266;51.132;17.062;2023-05-07T01:20:15;7.97;;;7.17;;
18280;SDS011;9266;51.132;17.062;2023-05-07T01:22:45;7.97;;;7.17;;
18280;SDS011;9266;51.132;17.062;2023-05-07T01:25:12;8.43;;;7.63;;
18280;SDS011;9266;51.132;17.062;2023-05-07T01:27:41;8.63;;;7.83;;
18280;SDS011;9266;51.132;17.062;2023-05-07T01:30:08;8.63;;;7.83;;
18280;SDS011;9266;51.132;17.062;2023-05-07T01:32:37;9.87;;;7.83;;
18280;SDS011;9266;51.132;17.062;2023-05-07T01:35:09;8.27;;;7.47;;
18280;SDS011;9266;51.132;17.062;2023-05-07T01:37:38;8.67;;;7.17;;
18280;SDS011;9266;51.132;17.062;2023-05-07T01:40:08;8.57;;;7.67;;
18280;SDS011;9266;51.132;17.062;2023-05-07T01:42:35;8.93;;;7.83;;
18280;SDS011;9266;51.132;17.062;2023-05-07T01:45:03;8.57;;;7.77;;
18280;SDS011;9266;51.132;17.062;2023-05-07T01:47:31;9.57;;;8.57;;
18280;SDS011;9266;51.132;17.062;2023-05-07T01:49:59;10.53;;;8.07;;
18280;SDS011;9266;51.132;17.062;2023-05-07T01:52:26;9.30;;;8.40;;
18280;SDS011;9266;51.132;17.062;2023-05-07T01:54:54;9.93;;;8.40;;
18280;SDS011;9266;51.132;17.062;2023-05-07T01:57:22;8.97;;;7.77;;
18280;SDS011;9266;51.132;17.062;2023-05-07T01:59:49;9.07;;;7.77;;
18280;SDS011;9266;51.132;17.062;2023-05-07T02:02:16;9.00;;;8.20;;
18280;SDS011;9266;51.132;17.062;2023-05-07T02:04:43;8.23;;;7.43;;
18280;SDS011;9266;51.132;17.062;2023-05-07T02:07:10;8.77;;;8.00;;
18280;SDS011;9266;51.132;17.062;2023-05-07T02:09:37;8.63;;;7.80;;
18280;SDS011;9266;51.132;17.062;2023-05-07T02:12:04;8.43;;;7.63;;
18280;SDS011;9266;51.132;17.062;2023-05-07T02:14:33;8.03;;;7.23;;
18280;SDS011;9266;51.132;17.062;2023-05-07T02:17:00;8.37;;;7.57;;
18280;SDS011;9266;51.132;17.062;2023-05-07T02:19:27;8.70;;;7.83;;
18280;SDS011;9266;51.132;17.062;2023-05-07T02:21:54;8.37;;;7.57;;
18280;SDS011;9266;51.132;17.062;2023-05-07T02:24:20;10.67;;;7.93;;
18280;SDS011;9266;51.132;17.062;2023-05-07T02:26:48;10.27;;;8.10;;
18280;SDS011;9266;51.132;17.062;2023-05-07T02:29:14;8.90;;;8.00;;
18280;SDS011;9266;51.132;17.062;2023-05-07T02:31:43;9.77;;;7.90;;
18280;SDS011;9266;51.132;17.062;2023-05-07T02:34:10;8.57;;;7.77;;
18280;SDS011;9266;51.132;17.062;2023-05-07T02:36:37;8.90;;;7.87;;
18280;SDS011;9266;51.132;17.062;2023-05-07T02:39:04;8.60;;;7.80;;
18280;SDS011;9266;51.132;17.062;2023-05-07T02:41:31;9.13;;;8.10;;
18280;SDS011;9266;51.132;17.062;2023-05-07T02:43:58;8.47;;;7.67;;
18280;SDS011;9266;51.132;17.062;2023-05-07T02:46:25;10.47;;;8.47;;
18280;SDS011;9266;51.132;17.062;2023-05-07T02:48:53;10.47;;;7.90;;
18280;SDS011;9266;51.132;17.062;2023-05-07T02:51:20;10.57;;;8.20;;
18280;SDS011;9266;51.132;17.062;2023-05-07T02:53:48;9.23;;;8.30;;
18280;SDS011;9266;51.132;17.062;2023-05-07T02:56:15;10.50;;;8.43;;
18280;SDS011;9266;51.132;17.062;2023-05-07T02:58:42;9.10;;;8.30;;
18280;SDS011;9266;51.132;17.062;2023-05-07T03:01:09;11.27;;;8.50;;
18280;SDS011;9266;51.132;17.062;2023-05-07T03:03:37;9.33;;;8.43;;
18280;SDS011;9266;51.132;17.062;2023-05-07T03:06:05;8.77;;;7.90;;
18280;SDS011;9266;51.132;17.062;2023-05-07T03:08:32;12.63;;;8.90;;
18280;SDS011;9266;51.132;17.062;2023-05-07T03:10:59;10.67;;;7.83;;
18280;SDS011;9266;51.132;17.062;2023-05-07T03:13:26;8.47;;;7.77;;
18280;SDS011;9266;51.132;17.062;2023-05-07T03:15:53;8.10;;;7.30;;
18280;SDS011;9266;51.132;17.062;2023-05-07T03:18:20;9.50;;;8.13;;
18280;SDS011;9266;51.132;17.062;2023-05-07T03:20:47;8.23;;;7.43;;
18280;SDS011;9266;51.132;17.062;2023-05-07T03:23:16;9.20;;;8.30;;
18280;SDS011;9266;51.132;17.062;2023-05-07T03:25:43;8.77;;;7.97;;
18280;SDS011;9266;51.132;17.062;2023-05-07T03:28:10;9.97;;;7.87;;
18280;SDS011;9266;51.132;17.062;2023-05-07T03:30:37;8.30;;;7.43;;
18280;SDS011;9266;51.132;17.062;2023-05-07T03:33:04;7.83;;;7.03;;
18280;SDS011;9266;51.132;17.062;2023-05-07T03:35:31;7.17;;;6.57;;
18280;SDS011;9266;51.132;17.062;2023-05-07T03:37:57;7.53;;;6.83;;
18280;SDS011;9266;51.132;17.062;2023-05-07T03:40:26;7.20;;;6.60;;
18280;SDS011;9266;51.132;17.062;2023-05-07T03:42:53;8.77;;;7.20;;
18280;SDS011;9266;51.132;17.062;2023-05-07T03:45:20;8.77;;;7.07;;
18280;SDS011;9266;51.132;17.062;2023-05-07T03:47:47;7.80;;;6.33;;
18280;SDS011;9266;51.132;17.062;2023-05-07T03:50:14;7.23;;;6.40;;
18280;SDS011;9266;51.132;17.062;2023-05-07T03:52:41;8.07;;;6.40;;
18280;SDS011;9266;51.132;17.062;2023-05-07T03:55:08;8.43;;;6.43;;
18280;SDS011;9266;51.132;17.062;2023-05-07T03:57:37;6.77;;;6.10;;
18280;SDS011;9266;51.132;17.062;2023-05-07T04:00:04;6.87;;;6.27;;
18280;SDS011;9266;51.132;17.062;2023-05-07T04:02:32;6.53;;;6.00;;
18280;SDS011;9266;51.132;17.062;2023-05-07T04:04:59;6.40;;;5.87;;
18280;SDS011;9266;51.132;17.062;2023-05-07T04:07:26;6.77;;;6.17;;
18280;SDS011;9266;51.132;17.062;2023-05-07T04:09:53;8.57;;;6.93;;
18280;SDS011;9266;51.132;17.062;2023-05-07T04:12:21;7.10;;;6.40;;
18280;SDS011;9266;51.132;17.062;2023-05-07T04:14:49;7.10;;;6.40;;
18280;SDS011;9266;51.132;17.062;2023-05-07T04:17:16;8.73;;;6.93;;
18280;SDS011;9266;51.132;17.062;2023-05-07T04:19:43;8.90;;;8.00;;
18280;SDS011;9266;51.132;17.062;2023-05-07T04:22:10;8.80;;;7.50;;
18280;SDS011;9266;51.132;17.062;2023-05-07T04:24:37;8.03;;;7.37;;
18280;SDS011;9266;51.132;17.062;2023-05-07T04:27:04;9.00;;;8.20;;
18280;SDS011;9266;51.132;17.062;2023-05-07T04:29:32;8.73;;;7.93;;
18280;SDS011;9266;51.132;17.062;2023-05-07T04:32:00;8.90;;;8.00;;
18280;SDS011;9266;51.132;17.062;2023-05-07T04:34:27;8.40;;;7.60;;
18280;SDS011;9266;51.132;17.062;2023-05-07T04:36:57;8.73;;;7.63;;
18280;SDS011;9266;51.132;17.062;2023-05-07T04:39:24;8.50;;;7.53;;
18280;SDS011;9266;51.132;17.062;2023-05-07T04:41:51;8.23;;;7.53;;
18280;SDS011;9266;51.132;17.062;2023-05-07T04:44:18;8.07;;;7.37;;
18280;SDS011;9266;51.132;17.062;2023-05-07T04:46:45;7.77;;;7.07;;
18280;SDS011;9266;51.132;17.062;2023-05-07T04:49:14;8.50;;;7.10;;
18280;SDS011;9266;51.132;17.062;2023-05-07T04:51:41;7.30;;;6.60;;
18280;SDS011;9266;51.132;17.062;2023-05-07T04:54:08;7.90;;;7.20;;
18280;SDS011;9266;51.132;17.062;2023-05-07T04:56:35;7.60;;;6.90;;
18280;SDS011;9266;51.132;17.062;2023-05-07T04:59:02;7.63;;;6.90;;
18280;SDS011;9266;51.132;17.062;2023-05-07T05:01:29;6.90;;;6.27;;
18280;SDS011;9266;51.132;17.062;2023-05-07T05:03:56;6.80;;;6.20;;
18280;SDS011;9266;51.132;17.062;2023-05-07T05:06:26;7.07;;;6.43;;
18280;SDS011;9266;51.132;17.062;2023-05-07T05:08:53;6.87;;;6.27;;
18280;SDS011;9266;51.132;17.062;2023-05-07T05:11:20;7.23;;;6.53;;
18280;SDS011;9266;51.132;17.062;2023-05-07T05:13:47;7.60;;;6.90;;
18280;SDS011;9266;51.132;17.062;2023-05-07T05:16:14;7.77;;;7.07;;
18280;SDS011;9266;51.132;17.062;2023-05-07T05:18:41;7.57;;;6.97;;
18280;SDS011;9266;51.132;17.062;2023-05-07T05:21:08;7.77;;;7.07;;
18280;SDS011;9266;51.132;17.062;2023-05-07T05:23:37;7.37;;;6.73;;
18280;SDS011;9266;51.132;17.062;2023-05-07T05:26:04;7.57;;;6.93;;
18280;SDS011;9266;51.132;17.062;2023-05-07T05:28:31;8.20;;;7.43;;
18280;SDS011;9266;51.132;17.062;2023-05-07T05:30:58;8.30;;;7.57;;
18280;SDS011;9266;51.132;17.062;2023-05-07T05:33:25;8.10;;;7.40;;
18280;SDS011;9266;51.132;17.062;2023-05-07T05:35:53;7.83;;;7.17;;
18280;SDS011;9266;51.132;17.062;2023-05-07T05:38:20;7.57;;;6.80;;
18280;SDS011;9266;51.132;17.062;2023-05-07T05:40:48;7.83;;;7.23;;
18280;SDS011;9266;51.132;17.062;2023-05-07T05:43:15;8.20;;;7.40;;
18280;SDS011;9266;51.132;17.062;2023-05-07T05:45:42;7.50;;;6.80;;
18280;SDS011;9266;51.132;17.062;2023-05-07T05:48:09;8.03;;;6.93;;
18280;SDS011;9266;51.132;17.062;2023-05-07T05:50:36;7.47;;;6.70;;
18280;SDS011;9266;51.132;17.062;2023-05-07T05:53:03;7.20;;;6.60;;
18280;SDS011;9266;51.132;17.062;2023-05-07T05:55:30;7.87;;;7.17;;
18280;SDS011;9266;51.132;17.062;2023-05-07T05:57:59;7.03;;;6.33;;
18280;SDS011;9266;51.132;17.062;2023-05-07T06:00:26;7.50;;;6.80;;
18280;SDS011;9266;51.132;17.062;2023-05-07T06:02:54;7.80;;;7.20;;
18280;SDS011;9266;51.132;17.062;2023-05-07T06:05:21;7.73;;;6.97;;
18280;SDS011;9266;51.132;17.062;2023-05-07T06:07:48;6.50;;;5.90;;
18280;SDS011;9266;51.132;17.062;2023-05-07T06:10:15;7.73;;;7.03;;
18280;SDS011;9266;51.132;17.062;2023-05-07T06:12:42;7.03;;;6.43;;
18280;SDS011;9266;51.132;17.062;2023-05-07T06:15:10;6.87;;;6.27;;
18280;SDS011;9266;51.132;17.062;2023-05-07T06:17:37;6.97;;;6.33;;
18280;SDS011;9266;51.132;17.062;2023-05-07T06:20:05;7.10;;;6.50;;
18280;SDS011;9266;51.132;17.062;2023-05-07T06:22:33;6.93;;;6.10;;
18280;SDS011;9266;51.132;17.062;2023-05-07T06:25:00;7.30;;;6.47;;
18280;SDS011;9266;51.132;17.062;2023-05-07T06:27:27;6.23;;;5.63;;
18280;SDS011;9266;51.132;17.062;2023-05-07T06:29:54;7.00;;;6.40;;
18280;SDS011;9266;51.132;17.062;2023-05-07T06:32:22;5.60;;;5.10;;
18280;SDS011;9266;51.132;17.062;2023-05-07T06:34:49;6.57;;;5.97;;
18280;SDS011;9266;51.132;17.062;2023-05-07T06:37:16;6.10;;;5.57;;
18280;SDS011;9266;51.132;17.062;2023-05-07T06:39:43;6.20;;;5.70;;
18280;SDS011;9266;51.132;17.062;2023-05-07T06:42:10;7.03;;;6.33;;
18280;SDS011;9266;51.132;17.062;2023-05-07T06:44:37;6.87;;;6.30;;
18280;SDS011;9266;51.132;17.062;2023-05-07T06:47:04;6.23;;;5.73;;
18280;SDS011;9266;51.132;17.062;2023-05-07T06:49:33;6.60;;;6.00;;
18280;SDS011;9266;51.132;17.062;2023-05-07T06:52:00;5.50;;;5.10;;
18280;SDS011;9266;51.132;17.062;2023-05-07T06:54:27;5.40;;;4.97;;
18280;SDS011;9266;51.132;17.062;2023-05-07T06:56:55;5.90;;;5.37;;
18280;SDS011;9266;51.132;17.062;2023-05-07T06:59:22;7.10;;;6.30;;
18280;SDS011;9266;51.132;17.062;2023-05-07T07:01:50;6.07;;;5.53;;
18280;SDS011;9266;51.132;17.062;2023-05-07T07:04:17;5.47;;;4.87;;
18280;SDS011;9266;51.132;17.062;2023-05-07T07:06:45;5.33;;;4.90;;
18280;SDS011;9266;51.132;17.062;2023-05-07T07:09:12;6.20;;;5.60;;
18280;SDS011;9266;51.132;17.062;2023-05-07T07:11:39;5.80;;;5.30;;
18280;SDS011;9266;51.132;17.062;2023-05-07T07:14:06;5.43;;;4.93;;
18280;SDS011;9266;51.132;17.062;2023-05-07T07:16:33;5.50;;;5.03;;
18280;SDS011;9266;51.132;17.062;2023-05-07T07:19:00;5.30;;;4.90;;
18280;SDS011;9266;51.132;17.062;2023-05-07T07:21:27;6.00;;;5.53;;
18280;SDS011;9266;51.132;17.062;2023-05-07T07:23:56;5.13;;;4.73;;
18280;SDS011;9266;51.132;17.062;2023-05-07T07:26:23;5.40;;;5.00;;
18280;SDS011;9266;51.132;17.062;2023-05-07T07:28:51;5.57;;;5.00;;
18280;SDS011;9266;51.132;17.062;2023-05-07T07:31:18;5.73;;;5.23;;
18280;SDS011;9266;51.132;17.062;2023-05-07T07:33:45;6.40;;;5.90;;
18280;SDS011;9266;51.132;17.062;2023-05-07T07:36:12;6.17;;;5.67;;
18280;SDS011;9266;51.132;17.062;2023-05-07T07:38:40;6.40;;;4.53;;
18280;SDS011;9266;51.132;17.062;2023-05-07T07:41:08;5.87;;;5.47;;
18280;SDS011;9266;51.132;17.062;2023-05-07T07:43:36;6.40;;;5.90;;
18280;SDS011;9266;51.132;17.062;2023-05-07T07:46:03;6.53;;;6.03;;
18280;SDS011;9266;51.132;17.062;2023-05-07T07:48:30;6.60;;;6.10;;
18280;SDS011;9266;51.132;17.062;2023-05-07T07:50:57;7.37;;;6.67;;
18280;SDS011;9266;51.132;17.062;2023-05-07T07:53:24;7.23;;;6.53;;
18280;SDS011;9266;51.132;17.062;2023-05-07T07:55:51;7.43;;;6.70;;
18280;SDS011;9266;51.132;17.062;2023-05-07T07:58:19;6.90;;;6.30;;
18280;SDS011;9266;51.132;17.062;2023-05-07T08:00:47;6.30;;;5.80;;
18280;SDS011;9266;51.132;17.062;2023-05-07T08:03:14;6.90;;;6.30;;
18280;SDS011;9266;51.132;17.062;2023-05-07T08:05:41;6.27;;;5.77;;
18280;SDS011;9266;51.132;17.062;2023-05-07T08:08:08;6.80;;;6.20;;
18280;SDS011;9266;51.132;17.062;2023-05-07T08:10:35;7.07;;;6.47;;
18280;SDS011;9266;51.132;17.062;2023-05-07T08:13:04;7.30;;;6.60;;
18280;SDS011;9266;51.132;17.062;2023-05-07T08:15:33;7.67;;;6.97;;
18280;SDS011;9266;51.132;17.062;2023-05-07T08:18:00;7.40;;;6.80;;
18280;SDS011;9266;51.132;17.062;2023-05-07T08:20:28;7.60;;;6.90;;
18280;SDS011;9266;51.132;17.062;2023-05-07T08:22:55;8.00;;;7.20;;
18280;SDS011;9266;51.132;17.062;2023-05-07T08:25:22;7.80;;;7.10;;
18280;SDS011;9266;51.132;17.062;2023-05-07T08:27:49;10.20;;;6.70;;
18280;SDS011;9266;51.132;17.062;2023-05-07T08:30:16;8.60;;;7.70;;
18280;SDS011;9266;51.132;17.062;2023-05-07T08:32:44;7.77;;;7.13;;
18280;SDS011;9266;51.132;17.062;2023-05-07T08:35:11;8.40;;;7.50;;
18280;SDS011;9266;51.132;17.062;2023-05-07T08:37:39;7.90;;;7.20;;
18280;SDS011;9266;51.132;17.062;2023-05-07T08:40:06;8.07;;;7.43;;
18280;SDS011;9266;51.132;17.062;2023-05-07T08:42:35;8.27;;;7.47;;
18280;SDS011;9266;51.132;17.062;2023-05-07T08:45:03;8.53;;;7.70;;
18280;SDS011;9266;51.132;17.062;2023-05-07T08:47:39;8.93;;;8.03;;
18280;SDS011;9266;51.132;17.062;2023-05-07T08:50:11;9.13;;;8.23;;
18280;SDS011;9266;51.132;17.062;2023-05-07T08:52:39;8.97;;;8.07;;
18280;SDS011;9266;51.132;17.062;2023-05-07T08:55:06;9.33;;;8.43;;
18280;SDS011;9266;51.132;17.062;2023-05-07T08:57:35;8.90;;;8.10;;
18280;SDS011;9266;51.132;17.062;2023-05-07T09:00:02;7.93;;;7.23;;
18280;SDS011;9266;51.132;17.062;2023-05-07T09:02:32;8.33;;;7.50;;
18280;SDS011;9266;51.132;17.062;2023-05-07T09:04:59;8.63;;;7.83;;
18280;SDS011;9266;51.132;17.062;2023-05-07T09:07:27;8.63;;;7.73;;
18280;SDS011;9266;51.132;17.062;2023-05-07T09:09:56;7.70;;;7.00;;
18280;SDS011;9266;51.132;17.062;2023-05-07T09:12:23;8.10;;;7.30;;
18280;SDS011;9266;51.132;17.062;2023-05-07T09:14:50;7.63;;;7.00;;
18280;SDS011;9266;51.132;17.062;2023-05-07T09:17:17;8.27;;;7.57;;
18280;SDS011;9266;51.132;17.062;2023-05-07T09:19:44;7.93;;;7.23;;
18280;SDS011;9266;51.132;17.062;2023-05-07T09:22:11;8.03;;;7.37;;
18280;SDS011;9266;51.132;17.062;2023-05-07T09:24:40;8.63;;;7.83;;
18280;SDS011;9266;51.132;17.062;2023-05-07T09:27:14;8.67;;;7.87;;
18280;SDS011;9266;51.132;17.062;2023-05-07T09:29:41;8.10;;;7.50;;
18280;SDS011;9266;51.132;17.062;2023-05-07T09:32:10;8.97;;;8.10;;
18280;SDS011;9266;51.132;17.062;2023-05-07T09:34:37;9.03;;;8.07;;
18280;SDS011;9266;51.132;17.062;2023-05-07T09:37:04;9.03;;;8.13;;
18280;SDS011;9266;51.132;17.062;2023-05-07T09:39:38;9.00;;;8.10;;
18280;SDS011;9266;51.132;17.062;2023-05-07T09:42:07;8.97;;;8.17;;
18280;SDS011;9266;51.132;17.062;2023-05-07T09:44:35;9.80;;;8.80;;
18280;SDS011;9266;51.132;17.062;2023-05-07T09:47:03;9.43;;;8.53;;
18280;SDS011;9266;51.132;17.062;2023-05-07T09:49:33;10.00;;;9.10;;
18280;SDS011;9266;51.132;17.062;2023-05-07T09:52:01;9.70;;;8.83;;
18280;SDS011;9266;51.132;17.062;2023-05-07T09:54:31;8.70;;;7.80;;
18280;SDS011;9266;51.132;17.062;2023-05-07T09:57:00;9.57;;;8.67;;
18280;SDS011;9266;51.132;17.062;2023-05-07T09:59:28;8.93;;;8.07;;
18280;SDS011;9266;51.132;17.062;2023-05-07T10:01:58;7.20;;;6.67;;
18280;SDS011;9266;51.132;17.062;2023-05-07T10:04:26;9.83;;;9.10;;
18280;SDS011;9266;51.132;17.062;2023-05-07T10:06:53;29.07;;;27.67;;
18280;SDS011;9266;51.132;17.062;2023-05-07T10:09:21;43.50;;;41.50;;
18280;SDS011;9266;51.132;17.062;2023-05-07T10:11:50;42.10;;;40.07;;
18280;SDS011;9266;51.132;17.062;2023-05-07T10:14:20;44.80;;;42.80;;
18280;SDS011;9266;51.132;17.062;2023-05-07T10:16:47;86.53;;;82.97;;
18280;SDS011;9266;51.132;17.062;2023-05-07T10:19:15;39.97;;;38.07;;
18280;SDS011;9266;51.132;17.062;2023-05-07T10:21:44;25.87;;;24.67;;
18280;SDS011;9266;51.132;17.062;2023-05-07T10:24:20;13.30;;;12.50;;
18280;SDS011;9266;51.132;17.062;2023-05-07T10:26:52;22.27;;;21.20;;
18280;SDS011;9266;51.132;17.062;2023-05-07T10:29:28;49.67;;;47.60;;
18280;SDS011;9266;51.132;17.062;2023-05-07T10:32:08;46.43;;;44.50;;
18280;SDS011;9266;51.132;17.062;2023-05-07T10:34:47;67.33;;;64.57;;
18280;SDS011;9266;51.132;17.062;2023-05-07T10:37:17;42.80;;;40.90;;
18280;SDS011;9266;51.132;17.062;2023-05-07T10:39:44;32.30;;;30.90;;
18280;SDS011;9266;51.132;17.062;2023-05-07T10:42:12;39.00;;;37.00;;
18280;SDS011;9266;51.132;17.062;2023-05-07T10:44:41;46.03;;;44.10;;
18280;SDS011;9266;51.132;17.062;2023-05-07T10:47:09;74.40;;;71.30;;
18280;SDS011;9266;51.132;17.062;2023-05-07T10:49:38;35.87;;;34.37;;
18280;SDS011;9266;51.132;17.062;2023-05-07T10:52:43;50.50;;;48.37;;
18280;SDS011;9266;51.132;17.062;2023-05-07T10:55:19;89.27;;;85.73;;
18280;SDS011;9266;51.132;17.062;2023-05-07T10:57:50;23.27;;;22.17;;
18280;SDS011;9266;51.132;17.062;2023-05-07T11:03:09;27.50;;;26.23;;
18280;SDS011;9266;51.132;17.062;2023-05-07T11:05:37;21.20;;;20.00;;
18280;SDS011;9266;51.132;17.062;2023-05-07T11:08:04;34.03;;;32.43;;
18280;SDS011;9266;51.132;17.062;2023-05-07T11:10:47;27.23;;;25.93;;
18280;SDS011;9266;51.132;17.062;2023-05-07T11:13:16;23.37;;;22.27;;
18280;SDS011;9266;51.132;17.062;2023-05-07T11:15:45;35.87;;;34.23;;
18280;SDS011;9266;51.132;17.062;2023-05-07T11:18:14;26.77;;;25.33;;
18280;SDS011;9266;51.132;17.062;2023-05-07T11:20:51;63.70;;;61.13;;
18280;SDS011;9266;51.132;17.062;2023-05-07T11:26:45;69.20;;;66.60;;
18280;SDS011;9266;51.132;17.062;2023-05-07T11:29:15;28.60;;;27.27;;
18280;SDS011;9266;51.132;17.062;2023-05-07T11:31:44;20.87;;;19.53;;
18280;SDS011;9266;51.132;17.062;2023-05-07T11:34:15;48.97;;;47.00;;
18280;SDS011;9266;51.132;17.062;2023-05-07T11:36:48;39.47;;;37.80;;
18280;SDS011;9266;51.132;17.062;2023-05-07T11:39:25;161.37;;;155.33;;
18280;SDS011;9266;51.132;17.062;2023-05-07T11:41:56;178.27;;;171.73;;
18280;SDS011;9266;51.132;17.062;2023-05-07T11:44:23;41.40;;;39.67;;
18280;SDS011;9266;51.132;17.062;2023-05-07T11:46:52;60.03;;;57.53;;
18280;SDS011;9266;51.132;17.062;2023-05-07T11:49:19;137.47;;;132.40;;
18280;SDS011;9266;51.132;17.062;2023-05-07T11:51:46;19.83;;;18.83;;
18280;SDS011;9266;51.132;17.062;2023-05-07T11:54:15;43.40;;;41.47;;
18280;SDS011;9266;51.132;17.062;2023-05-07T11:56:43;345.00;;;332.23;;
18280;SDS011;9266;51.132;17.062;2023-05-07T11:59:16;30.33;;;28.87;;
18280;SDS011;9266;51.132;17.062;2023-05-07T12:01:45;217.73;;;209.97;;
18280;SDS011;9266;51.132;17.062;2023-05-07T12:04:16;164.60;;;158.50;;
18280;SDS011;9266;51.132;17.062;2023-05-07T12:06:46;40.33;;;38.50;;
18280;SDS011;9266;51.132;17.062;2023-05-07T12:09:13;53.67;;;51.47;;
18280;SDS011;9266;51.132;17.062;2023-05-07T12:11:40;265.33;;;256.10;;
18280;SDS011;9266;51.132;17.062;2023-05-07T12:14:12;195.43;;;188.47;;
18280;SDS011;9266;51.132;17.062;2023-05-07T12:16:40;24.30;;;23.07;;
18280;SDS011;9266;51.132;17.062;2023-05-07T12:19:08;83.23;;;79.97;;
18280;SDS011;9266;51.132;17.062;2023-05-07T12:21:39;245.40;;;236.17;;
18280;SDS011;9266;51.132;17.062;2023-05-07T12:24:06;243.77;;;235.33;;
18280;SDS011;9266;51.132;17.062;2023-05-07T12:26:37;148.27;;;142.90;;
18280;SDS011;9266;51.132;17.062;2023-05-07T12:29:05;152.37;;;146.73;;
18280;SDS011;9266;51.132;17.062;2023-05-07T12:31:32;40.57;;;38.80;;
18280;SDS011;9266;51.132;17.062;2023-05-07T12:33:59;59.30;;;56.70;;
18280;SDS011;9266;51.132;17.062;2023-05-07T12:36:27;144.37;;;139.00;;
18280;SDS011;9266;51.132;17.062;2023-05-07T12:39:05;27.13;;;25.80;;
18280;SDS011;9266;51.132;17.062;2023-05-07T12:41:35;50.50;;;48.20;;
18280;SDS011;9266;51.132;17.062;2023-05-07T12:44:18;106.70;;;102.40;;
18280;SDS011;9266;51.132;17.062;2023-05-07T12:46:46;98.03;;;94.13;;
18280;SDS011;9266;51.132;17.062;2023-05-07T12:49:13;88.00;;;84.57;;
18280;SDS011;9266;51.132;17.062;2023-05-07T12:51:40;68.83;;;66.13;;
18280;SDS011;9266;51.132;17.062;2023-05-07T12:54:09;32.20;;;30.73;;
18280;SDS011;9266;51.132;17.062;2023-05-07T12:56:36;60.63;;;58.07;;
18280;SDS011;9266;51.132;17.062;2023-05-07T12:59:03;25.77;;;24.43;;
18280;SDS011;9266;51.132;17.062;2023-05-07T13:01:30;90.13;;;86.57;;
18280;SDS011;9266;51.132;17.062;2023-05-07T13:04:00;128.90;;;124.10;;
18280;SDS011;9266;51.132;17.062;2023-05-07T13:06:29;191.10;;;184.40;;
18280;SDS011;9266;51.132;17.062;2023-05-07T13:08:56;150.40;;;144.90;;
18280;SDS011;9266;51.132;17.062;2023-05-07T13:11:25;93.97;;;90.43;;
18280;SDS011;9266;51.132;17.062;2023-05-07T13:13:52;145.90;;;140.53;;
18280;SDS011;9266;51.132;17.062;2023-05-07T13:16:19;59.53;;;57.03;;
18280;SDS011;9266;51.132;17.062;2023-05-07T13:18:46;20.83;;;19.67;;
18280;SDS011;9266;51.132;17.062;2023-05-07T13:21:13;163.37;;;157.43;;
18280;SDS011;9266;51.132;17.062;2023-05-07T13:23:40;139.57;;;134.50;;
18280;SDS011;9266;51.132;17.062;2023-05-07T13:26:07;75.30;;;72.13;;
18280;SDS011;9266;51.132;17.062;2023-05-07T13:28:35;52.33;;;50.07;;
18280;SDS011;9266;51.132;17.062;2023-05-07T13:31:02;119.93;;;115.33;;
18280;SDS011;9266;51.132;17.062;2023-05-07T13:33:29;145.03;;;139.73;;
18280;SDS011;9266;51.132;17.062;2023-05-07T13:35:56;100.90;;;96.93;;
18280;SDS011;9266;51.132;17.062;2023-05-07T13:38:25;31.73;;;30.17;;
18280;SDS011;9266;51.132;17.062;2023-05-07T13:40:52;87.77;;;84.37;;
18280;SDS011;9266;51.132;17.062;2023-05-07T13:43:19;145.37;;;140.00;;
18280;SDS011;9266;51.132;17.062;2023-05-07T13:45:48;140.57;;;135.23;;
18280;SDS011;9266;51.132;17.062;2023-05-07T13:48:15;52.90;;;50.67;;
18280;SDS011;9266;51.132;17.062;2023-05-07T13:50:42;45.23;;;43.17;;
18280;SDS011;9266;51.132;17.062;2023-05-07T13:53:09;80.13;;;76.90;;
18280;SDS011;9266;51.132;17.062;2023-05-07T13:55:36;51.93;;;49.80;;
18280;SDS011;9266;51.132;17.062;2023-05-07T13:58:04;42.27;;;40.43;;
18280;SDS011;9266;51.132;17.062;2023-05-07T14:00:31;46.27;;;44.27;;
18280;SDS011;9266;51.132;17.062;2023-05-07T14:03:00;70.90;;;67.90;;
18280;SDS011;9266;51.132;17.062;2023-05-07T14:05:27;61.77;;;59.23;;
18280;SDS011;9266;51.132;17.062;2023-05-07T14:07:54;81.70;;;78.47;;
18280;SDS011;9266;51.132;17.062;2023-05-07T14:10:23;121.17;;;116.33;;
18280;SDS011;9266;51.132;17.062;2023-05-07T14:12:50;146.00;;;140.40;;
18280;SDS011;9266;51.132;17.062;2023-05-07T14:15:19;88.80;;;85.23;;
18280;SDS011;9266;51.132;17.062;2023-05-07T14:17:46;32.27;;;30.63;;
18280;SDS011;9266;51.132;17.062;2023-05-07T14:20:14;31.77;;;30.27;;
18280;SDS011;9266;51.132;17.062;2023-05-07T14:22:41;27.23;;;25.77;;
18280;SDS011;9266;51.132;17.062;2023-05-07T14:25:08;85.93;;;82.43;;
18280;SDS011;9266;51.132;17.062;2023-05-07T14:27:36;57.43;;;55.00;;
18280;SDS011;9266;51.132;17.062;2023-05-07T14:30:03;118.33;;;113.93;;
18280;SDS011;9266;51.132;17.062;2023-05-07T14:32:31;106.70;;;102.63;;
18280;SDS011;9266;51.132;17.062;2023-05-07T14:34:59;33.57;;;31.97;;
18280;SDS011;9266;51.132;17.062;2023-05-07T14:37:27;42.50;;;40.67;;
18280;SDS011;9266;51.132;17.062;2023-05-07T14:39:55;34.43;;;32.70;;
18280;SDS011;9266;51.132;17.062;2023-05-07T14:42:22;49.03;;;46.97;;
18280;SDS011;9266;51.132;17.062;2023-05-07T14:44:49;84.10;;;80.80;;
18280;SDS011;9266;51.132;17.062;2023-05-07T14:47:17;77.40;;;74.10;;